createdAt,value
2023-05-05T00:01:30.254Z,100239.41
2023-05-05T00:03:56.773Z,100240.56
2023-05-05T00:06:23.275Z,100250.25
2023-05-05T00:08:49.739Z,100238.13
2023-05-05T00:11:16.180Z,100226.59
2023-05-05T00:13:42.683Z,100226.94
2023-05-05T00:16:10.326Z,100232.97
2023-05-05T00:18:37.429Z,100223.00
2023-05-05T00:21:04.433Z,100222.72
2023-05-05T00:23:30.893Z,100224.00
2023-05-05T00:25:57.282Z,100218.31
2023-05-05T00:28:23.741Z,100215.91
2023-05-05T00:30:50.508Z,100216.91
2023-05-05T00:33:17.145Z,100214.59
2023-05-05T00:35:43.561Z,100212.16
2023-05-05T00:38:10.244Z,100211.03
2023-05-05T00:40:38.179Z,100207.94
2023-05-05T00:43:05.197Z,100195.53
2023-05-05T00:45:31.851Z,100198.94
2023-05-05T00:47:59.721Z,100199.09
2023-05-05T00:50:29.478Z,100196.69
2023-05-05T00:53:02.159Z,100192.75
2023-05-05T00:55:29.787Z,100196.31
2023-05-05T00:57:57.961Z,100185.06
2023-05-05T01:00:24.746Z,100183.16
2023-05-05T01:02:52.633Z,100185.09
2023-05-05T01:05:20.151Z,100188.22
2023-05-05T01:07:54.109Z,100187.88
2023-05-05T01:10:48.764Z,100186.44
2023-05-05T01:13:31.798Z,100195.41
2023-05-05T01:16:07.546Z,100190.53
2023-05-05T01:18:45.840Z,100192.50
2023-05-05T01:21:23.437Z,100193.34
2023-05-05T01:24:06.556Z,100194.13
2023-05-05T01:26:55.792Z,100199.34
2023-05-05T01:30:05.557Z,100196.75
2023-05-05T01:32:37.891Z,100191.69
2023-05-05T01:35:13.382Z,100201.47
2023-05-05T01:38:05.542Z,100208.97
2023-05-05T01:40:36.765Z,100199.53
2023-05-05T01:43:03.766Z,100207.03
2023-05-05T01:45:33.706Z,100194.16
2023-05-05T01:48:01.066Z,100206.53
2023-05-05T01:50:28.831Z,100187.63
2023-05-05T01:52:56.513Z,100190.72
2023-05-05T01:55:25.523Z,100196.13
2023-05-05T01:57:53.290Z,100189.59
2023-05-05T02:00:20.072Z,100190.56
2023-05-05T02:02:48.070Z,100187.31
2023-05-05T02:05:16.517Z,100180.47
2023-05-05T02:07:43.544Z,100188.28
2023-05-05T02:10:10.693Z,100178.50
2023-05-05T02:12:39.694Z,100174.59
2023-05-05T02:15:06.879Z,100170.19
2023-05-05T02:17:34.877Z,100169.38
2023-05-05T02:20:02.062Z,100162.53
2023-05-05T02:22:28.716Z,100158.78
2023-05-05T02:24:55.411Z,100167.72
2023-05-05T02:27:23.137Z,100163.50
2023-05-05T02:29:56.602Z,100157.13
2023-05-05T02:32:35.252Z,100157.47
2023-05-05T02:35:09.496Z,100163.97
2023-05-05T02:37:36.274Z,100164.31
2023-05-05T02:40:05.271Z,100163.00
2023-05-05T02:42:43.307Z,100156.97
2023-05-05T02:45:15.806Z,100159.56
2023-05-05T02:47:42.283Z,100162.69
2023-05-05T02:50:09.526Z,100162.19
2023-05-05T02:52:36.523Z,100176.53
2023-05-05T02:55:04.306Z,100167.88
2023-05-05T02:58:00.916Z,100170.66
2023-05-05T03:00:34.345Z,100170.66
2023-05-05T03:03:27.131Z,100168.69
2023-05-05T03:06:11.848Z,100166.59
2023-05-05T03:08:50.634Z,100173.44
2023-05-05T03:11:38.821Z,100167.72
2023-05-05T03:14:18.212Z,100170.81
2023-05-05T03:16:45.838Z,100165.44
2023-05-05T03:19:14.641Z,100168.38
2023-05-05T03:21:41.708Z,100164.47
2023-05-05T03:24:15.703Z,100164.78
2023-05-05T03:26:43.175Z,100167.72
2023-05-05T03:29:09.869Z,100170.38
2023-05-05T03:31:36.541Z,100162.84
2023-05-05T03:34:03.109Z,100167.56
2023-05-05T03:36:29.949Z,100168.38
2023-05-05T03:38:58.120Z,100171.31
2023-05-05T03:41:24.928Z,100169.69
2023-05-05T03:43:51.679Z,100175.38
2023-05-05T03:46:18.322Z,100167.06
2023-05-05T03:48:46.157Z,100171.31
2023-05-05T03:51:13.269Z,100174.41
2023-05-05T03:53:39.779Z,100167.41
2023-05-05T03:56:06.409Z,100176.84
2023-05-05T03:58:33.066Z,100174.56
2023-05-05T04:00:59.514Z,100175.53
2023-05-05T04:03:26.164Z,100174.72
2023-05-05T04:05:52.949Z,100178.63
2023-05-05T04:08:19.428Z,100175.06
2023-05-05T04:10:46.900Z,100173.25
2023-05-05T04:13:13.375Z,100175.38
2023-05-05T04:15:44.823Z,100175.22
2023-05-05T04:18:11.379Z,100173.44
2023-05-05T04:20:37.912Z,100178.00
2023-05-05T04:23:04.460Z,100176.41
2023-05-05T04:25:31.071Z,100174.91
2023-05-05T04:27:57.651Z,100183.56
2023-05-05T04:30:24.100Z,100174.72
2023-05-05T04:32:50.544Z,100172.94
2023-05-05T04:35:17.294Z,100172.44
2023-05-05T04:37:45.161Z,100172.44
2023-05-05T04:40:13.744Z,100180.41
2023-05-05T04:42:42.219Z,100184.63
2023-05-05T04:45:09.090Z,100191.44
2023-05-05T04:47:40.951Z,100196.16
2023-05-05T04:50:08.370Z,100195.16
2023-05-05T04:52:35.032Z,100197.88
2023-05-05T04:55:01.491Z,100196.16
2023-05-05T04:57:29.605Z,100191.06
2023-05-05T04:59:56.243Z,100194.59
2023-05-05T05:02:23.717Z,100195.38
2023-05-05T05:04:50.312Z,100189.69
2023-05-05T05:07:16.817Z,100193.91
2023-05-05T05:09:44.343Z,100203.75
2023-05-05T05:12:10.828Z,100193.66
2023-05-05T05:14:38.153Z,100193.00
2023-05-05T05:17:05.674Z,100194.13
2023-05-05T05:19:32.284Z,100202.72
2023-05-05T05:21:58.746Z,100198.31
2023-05-05T05:24:25.316Z,100204.16
2023-05-05T05:26:51.830Z,100200.22
2023-05-05T05:29:20.030Z,100200.94
2023-05-05T05:31:46.554Z,100196.09
2023-05-05T05:34:13.080Z,100199.06
2023-05-05T05:36:39.597Z,100195.63
2023-05-05T05:39:06.354Z,100188.72
2023-05-05T05:41:32.779Z,100191.13
2023-05-05T05:44:00.407Z,100198.97
2023-05-05T05:46:26.833Z,100202.31
2023-05-05T05:48:53.312Z,100196.31
2023-05-05T05:51:19.745Z,100195.13
2023-05-05T05:53:46.184Z,100202.84
2023-05-05T05:56:12.644Z,100196.78
2023-05-05T05:58:39.212Z,100198.91
2023-05-05T06:01:05.770Z,100195.59
2023-05-05T06:03:32.684Z,100193.44
2023-05-05T06:05:59.212Z,100203.13
2023-05-05T06:08:26.800Z,100200.38
2023-05-05T06:10:53.223Z,100197.47
2023-05-05T06:13:19.641Z,100191.88
2023-05-05T06:15:46.239Z,100195.09
2023-05-05T06:18:13.815Z,100197.47
2023-05-05T06:20:40.321Z,100190.22
2023-05-05T06:23:06.961Z,100202.38
2023-05-05T06:25:33.394Z,100191.63
2023-05-05T06:28:00.114Z,100193.97
2023-05-05T06:30:26.851Z,100203.00
2023-05-05T06:32:54.251Z,100199.03
2023-05-05T06:35:22.354Z,100190.91
2023-05-05T06:37:48.842Z,100198.16
2023-05-05T06:40:15.357Z,100192.06
2023-05-05T06:42:41.844Z,100192.91
2023-05-05T06:45:09.162Z,100188.03
2023-05-05T06:47:36.300Z,100193.63
2023-05-05T06:50:02.776Z,100186.16
2023-05-05T06:52:29.243Z,100194.25
2023-05-05T06:54:55.749Z,100188.84
2023-05-05T06:57:22.082Z,100180.97
2023-05-05T06:59:48.628Z,100183.16
2023-05-05T07:02:15.147Z,100187.97
2023-05-05T07:04:42.496Z,100187.50
2023-05-05T07:07:09.085Z,100188.97
2023-05-05T07:09:35.558Z,100187.69
2023-05-05T07:12:02.022Z,100183.34
2023-05-05T07:14:28.430Z,100190.53
2023-05-05T07:16:55.014Z,100188.09
2023-05-05T07:19:22.203Z,100190.78
2023-05-05T07:21:48.614Z,100184.53
2023-05-05T07:24:16.167Z,100190.34
2023-05-05T07:26:42.656Z,100181.47
2023-05-05T07:29:09.167Z,100180.50
2023-05-05T07:31:35.807Z,100187.31
2023-05-05T07:34:02.219Z,100184.16
2023-05-05T07:36:28.683Z,100173.91
2023-05-05T07:38:55.355Z,100189.38
2023-05-05T07:41:22.110Z,100176.91
2023-05-05T07:43:48.556Z,100170.94
2023-05-05T07:46:15.234Z,100179.53
2023-05-05T07:48:41.982Z,100179.75
2023-05-05T07:51:09.230Z,100182.41
2023-05-05T07:53:35.750Z,100188.31
2023-05-05T07:56:02.247Z,100168.97
2023-05-05T07:58:28.971Z,100180.03
2023-05-05T08:00:56.289Z,100187.09
2023-05-05T08:03:24.904Z,100177.41
2023-05-05T08:05:54.398Z,100178.06
2023-05-05T08:08:24.498Z,100179.31
2023-05-05T08:10:51.934Z,100175.47
2023-05-05T08:13:18.589Z,100169.28
2023-05-05T08:15:45.502Z,100182.19
2023-05-05T08:18:12.061Z,100177.16
2023-05-05T08:20:38.643Z,100170.88
2023-05-05T08:23:05.241Z,100169.09
2023-05-05T08:25:31.772Z,100170.47
2023-05-05T08:27:58.197Z,100171.69
2023-05-05T08:30:24.611Z,100164.31
2023-05-05T08:32:52.156Z,100166.84
2023-05-05T08:35:24.520Z,100166.16
2023-05-05T08:37:52.055Z,100162.31
2023-05-05T08:40:20.897Z,100154.44
2023-05-05T08:42:47.858Z,100157.88
2023-05-05T08:45:14.651Z,100149.19
2023-05-05T08:47:43.126Z,100138.44
2023-05-05T08:50:10.410Z,100136.06
2023-05-05T08:52:41.984Z,100139.47
2023-05-05T08:55:25.516Z,100135.78
2023-05-05T08:57:57.037Z,100142.06
2023-05-05T09:00:24.339Z,100147.41
2023-05-05T09:02:59.319Z,100138.91
2023-05-05T09:05:29.602Z,100136.41
2023-05-05T09:08:01.773Z,100138.22
2023-05-05T09:10:31.585Z,100138.03
2023-05-05T09:12:58.140Z,100134.88
2023-05-05T09:15:28.406Z,100125.16
2023-05-05T09:17:57.045Z,100146.94
2023-05-05T09:20:24.841Z,100135.41
2023-05-05T09:22:53.123Z,100135.91
2023-05-05T09:25:19.594Z,100133.53
2023-05-05T09:27:48.161Z,100145.19
2023-05-05T09:30:17.285Z,100138.69
2023-05-05T09:32:47.798Z,100126.66
2023-05-05T09:35:15.246Z,100137.13
2023-05-05T09:37:42.130Z,100129.59
2023-05-05T09:40:09.592Z,100141.06
2023-05-05T09:42:37.829Z,100135.53
2023-05-05T09:45:25.614Z,100130.84
2023-05-05T09:47:54.805Z,100141.22
2023-05-05T09:50:25.897Z,100147.47
2023-05-05T09:52:56.055Z,100137.59
2023-05-05T09:55:23.746Z,100135.97
2023-05-05T09:57:50.504Z,100126.34
2023-05-05T10:00:17.737Z,100134.88
2023-05-05T10:02:44.595Z,100131.50
2023-05-05T10:05:18.623Z,100137.25
2023-05-05T10:07:47.372Z,100122.22
2023-05-05T10:10:16.093Z,100127.59
2023-05-05T10:12:43.065Z,100129.84
2023-05-05T10:15:11.247Z,100119.84
2023-05-05T10:18:05.316Z,100109.13
2023-05-05T10:20:36.415Z,100112.91
2023-05-05T10:23:06.123Z,100114.09
2023-05-05T10:25:39.606Z,100102.00
2023-05-05T10:28:06.943Z,100102.44
2023-05-05T10:30:37.209Z,100114.50
2023-05-05T10:33:30.298Z,100102.34
2023-05-05T10:36:01.462Z,100106.00
2023-05-05T10:38:30.898Z,100097.88
2023-05-05T10:40:58.413Z,100102.13
2023-05-05T10:43:25.088Z,100089.28
2023-05-05T10:45:51.900Z,100092.94
2023-05-05T10:48:27.519Z,100095.72
2023-05-05T10:51:02.152Z,100092.84
2023-05-05T10:53:32.768Z,100076.56
2023-05-05T10:56:26.633Z,100080.03
2023-05-05T10:59:00.042Z,100064.50
2023-05-05T11:01:32.642Z,100076.78
2023-05-05T11:04:18.259Z,100075.03
2023-05-05T11:07:14.300Z,100062.69
2023-05-05T11:09:58.936Z,100058.00
2023-05-05T11:12:25.739Z,100066.19
2023-05-05T11:15:26.515Z,100067.34
2023-05-05T11:18:05.846Z,100080.00
2023-05-05T11:20:40.119Z,100060.25
2023-05-05T11:23:06.748Z,100064.09
2023-05-05T11:25:36.755Z,100058.78
2023-05-05T11:28:31.399Z,100049.44
2023-05-05T11:31:01.060Z,100050.00
2023-05-05T11:33:38.423Z,100054.63
2023-05-05T11:36:15.324Z,100051.69
2023-05-05T11:38:48.709Z,100047.50
2023-05-05T11:41:30.601Z,100037.66
2023-05-05T11:44:12.811Z,100032.66
2023-05-05T11:46:41.192Z,100036.25
2023-05-05T11:49:09.218Z,100026.25
2023-05-05T11:51:35.902Z,100029.91
2023-05-05T11:54:02.507Z,100023.75
2023-05-05T11:56:28.980Z,100027.19
2023-05-05T11:59:08.012Z,100032.84
2023-05-05T12:01:35.059Z,100029.06
2023-05-05T12:04:01.906Z,100032.88
2023-05-05T12:06:33.191Z,100024.94
2023-05-05T12:09:00.683Z,100018.41
2023-05-05T12:11:27.509Z,100009.00
2023-05-05T12:14:12.179Z,100015.25
2023-05-05T12:16:38.931Z,100011.38
2023-05-05T12:19:10.446Z,100016.41
2023-05-05T12:21:38.261Z,100019.22
2023-05-05T12:24:05.169Z,100010.63
2023-05-05T12:26:32.347Z,100007.59
2023-05-05T12:29:00.125Z,100014.78
2023-05-05T12:31:41.349Z,100007.81
2023-05-05T12:34:09.958Z,100015.31
2023-05-05T12:36:36.975Z,100006.84
2023-05-05T12:39:07.290Z,100008.28
2023-05-05T12:41:34.730Z,100011.09
2023-05-05T12:44:03.073Z,100001.19
2023-05-05T12:46:30.968Z,100003.69
2023-05-05T12:49:05.653Z,100002.75
2023-05-05T12:51:36.006Z,100003.47
2023-05-05T12:54:09.818Z,99996.78
2023-05-05T12:56:43.925Z,99994.06
2023-05-05T12:59:12.237Z,99993.59
2023-05-05T13:01:52.759Z,99987.66
2023-05-05T13:04:20.950Z,99991.53
2023-05-05T13:06:49.110Z,99981.63
2023-05-05T13:09:23.689Z,99982.06
2023-05-05T13:11:50.230Z,99976.28
2023-05-05T13:14:17.701Z,99980.53
2023-05-05T13:16:47.247Z,99978.03
2023-05-05T13:19:15.881Z,99979.59
2023-05-05T13:21:42.818Z,99968.63
2023-05-05T13:24:21.396Z,99965.16
2023-05-05T13:26:53.317Z,99961.81
2023-05-05T13:29:19.924Z,99959.03
2023-05-05T13:31:46.454Z,99954.47
2023-05-05T13:34:12.921Z,99955.16
2023-05-05T13:36:39.473Z,99948.91
2023-05-05T13:39:06.098Z,99955.56
2023-05-05T13:41:32.524Z,99952.56
2023-05-05T13:44:00.000Z,99946.41
2023-05-05T13:46:26.901Z,99943.94
2023-05-05T13:48:56.689Z,99932.03
2023-05-05T13:51:23.354Z,99935.06
2023-05-05T13:53:49.819Z,99915.66
2023-05-05T13:56:18.071Z,99931.06
2023-05-05T13:58:44.761Z,99925.97
2023-05-05T14:01:11.365Z,99928.31
2023-05-05T14:03:39.491Z,99925.06
2023-05-05T14:06:07.458Z,99919.81
2023-05-05T14:08:34.210Z,99921.69
2023-05-05T14:11:01.824Z,99916.00
2023-05-05T14:13:28.418Z,99916.63
2023-05-05T14:15:55.100Z,99906.19
2023-05-05T14:18:22.728Z,99900.75
2023-05-05T14:20:49.076Z,99899.16
2023-05-05T14:23:15.865Z,99915.00
2023-05-05T14:25:42.704Z,99906.59
2023-05-05T14:28:09.254Z,99896.22
2023-05-05T14:30:36.759Z,99896.59
2023-05-05T14:33:03.645Z,99897.69
2023-05-05T14:35:31.449Z,99895.09
2023-05-05T14:37:57.883Z,99893.13
2023-05-05T14:40:24.393Z,99892.31
2023-05-05T14:42:51.036Z,99891.34
2023-05-05T14:45:17.536Z,99895.97
2023-05-05T14:47:43.981Z,99888.44
2023-05-05T14:50:11.683Z,99897.50
2023-05-05T14:52:40.334Z,99884.69
2023-05-05T14:55:07.752Z,99883.50
2023-05-05T14:57:38.007Z,99879.34
2023-05-05T15:00:07.979Z,99880.50
2023-05-05T15:02:34.945Z,99892.63
2023-05-05T15:05:03.697Z,99875.84
2023-05-05T15:07:30.386Z,99876.75
2023-05-05T15:09:57.014Z,99874.47
2023-05-05T15:12:23.947Z,99868.41
2023-05-05T15:14:50.500Z,99865.03
2023-05-05T15:17:18.320Z,99871.13
2023-05-05T15:19:44.798Z,99857.03
2023-05-05T15:22:11.302Z,99860.94
2023-05-05T15:24:38.142Z,99863.44
2023-05-05T15:27:04.636Z,99857.94
2023-05-05T15:29:31.323Z,99854.78
2023-05-05T15:31:57.859Z,99879.66
2023-05-05T15:34:26.200Z,99860.75
2023-05-05T15:36:53.995Z,99857.38
2023-05-05T15:39:20.485Z,99851.16
2023-05-05T15:41:48.529Z,99850.44
2023-05-05T15:44:14.964Z,99842.63
2023-05-05T15:46:41.587Z,99852.84
2023-05-05T15:49:08.231Z,99854.72
2023-05-05T15:51:34.677Z,99845.81
2023-05-05T15:54:01.554Z,99850.25
2023-05-05T15:56:29.137Z,99849.72
2023-05-05T15:58:56.631Z,99840.13
2023-05-05T16:01:23.287Z,99842.97
2023-05-05T16:03:49.790Z,99834.09
2023-05-05T16:06:16.271Z,99840.56
2023-05-05T16:08:42.754Z,99843.69
2023-05-05T16:11:09.307Z,99841.81
2023-05-05T16:13:35.892Z,99838.19
2023-05-05T16:16:02.355Z,99834.81
2023-05-05T16:18:28.947Z,99836.59
2023-05-05T16:20:55.634Z,99839.94
2023-05-05T16:23:22.096Z,99832.91
2023-05-05T16:25:48.634Z,99827.47
2023-05-05T16:28:15.040Z,99832.28
2023-05-05T16:30:43.062Z,99830.66
2023-05-05T16:33:10.787Z,99833.69
2023-05-05T16:35:37.320Z,99833.00
2023-05-05T16:38:03.766Z,99841.31
2023-05-05T16:40:30.474Z,99825.34
2023-05-05T16:42:56.909Z,99821.16
2023-05-05T16:45:24.319Z,99836.22
2023-05-05T16:47:51.131Z,99835.84
2023-05-05T16:50:17.774Z,99831.41
2023-05-05T16:52:45.295Z,99829.47
2023-05-05T16:55:12.037Z,99836.38
2023-05-05T16:57:38.582Z,99830.75
2023-05-05T17:00:08.541Z,99829.13
2023-05-05T17:02:35.782Z,99832.06
2023-05-05T17:05:02.653Z,99827.72
2023-05-05T17:07:29.281Z,99821.50
2023-05-05T17:09:55.765Z,99821.81
2023-05-05T17:12:22.233Z,99829.41
2023-05-05T17:14:48.717Z,99824.84
2023-05-05T17:17:15.474Z,99824.16
2023-05-05T17:19:42.942Z,99823.00
2023-05-05T17:22:09.440Z,99830.94
2023-05-05T17:24:36.335Z,99826.44
2023-05-05T17:27:02.768Z,99814.06
2023-05-05T17:29:29.272Z,99821.03
2023-05-05T17:31:55.809Z,99813.72
2023-05-05T17:34:22.281Z,99815.00
2023-05-05T17:36:48.691Z,99815.50
2023-05-05T17:39:16.328Z,99808.16
2023-05-05T17:41:42.847Z,99809.97
2023-05-05T17:44:11.370Z,99812.56
2023-05-05T17:46:38.226Z,99821.50
2023-05-05T17:49:04.966Z,99811.94
2023-05-05T17:51:31.700Z,99815.16
2023-05-05T17:53:58.136Z,99817.28
2023-05-05T17:56:24.562Z,99813.03
2023-05-05T17:58:51.305Z,99817.22
2023-05-05T18:01:25.480Z,99814.84
2023-05-05T18:03:52.417Z,99815.06
2023-05-05T18:06:19.227Z,99811.53
2023-05-05T18:08:45.748Z,99821.28
2023-05-05T18:11:12.345Z,99815.94
2023-05-05T18:13:39.481Z,99812.81
2023-05-05T18:16:06.451Z,99807.94
2023-05-05T18:18:33.029Z,99815.09
2023-05-05T18:20:59.502Z,99820.03
2023-05-05T18:23:26.072Z,99810.47
2023-05-05T18:25:52.540Z,99826.28
2023-05-05T18:28:19.211Z,99823.16
2023-05-05T18:30:45.913Z,99825.16
2023-05-05T18:33:12.548Z,99830.41
2023-05-05T18:35:39.120Z,99826.13
2023-05-05T18:38:05.836Z,99829.41
2023-05-05T18:40:32.264Z,99838.34
2023-05-05T18:42:58.866Z,99829.47
2023-05-05T18:45:25.491Z,99839.13
2023-05-05T18:47:52.120Z,99837.94
2023-05-05T18:50:18.840Z,99834.38
2023-05-05T18:52:45.824Z,99844.59
2023-05-05T18:55:12.556Z,99830.88
2023-05-05T18:57:39.188Z,99835.34
2023-05-05T19:00:06.243Z,99838.25
2023-05-05T19:02:32.739Z,99842.69
2023-05-05T19:04:59.438Z,99843.94
2023-05-05T19:07:35.097Z,99840.34
2023-05-05T19:10:04.415Z,99844.75
2023-05-05T19:12:31.129Z,99843.56
2023-05-05T19:14:58.121Z,99841.56
2023-05-05T19:17:25.648Z,99847.22
2023-05-05T19:19:53.892Z,99847.22
2023-05-05T19:22:23.956Z,99852.50
2023-05-05T19:24:51.064Z,99850.53
2023-05-05T19:27:20.294Z,99859.69
2023-05-05T19:29:52.108Z,99858.09
2023-05-05T19:32:21.025Z,99854.91
2023-05-05T19:34:48.096Z,99853.75
2023-05-05T19:37:14.783Z,99846.91
2023-05-05T19:39:44.395Z,99851.75
2023-05-05T19:42:12.020Z,99855.41
2023-05-05T19:44:38.829Z,99853.41
2023-05-05T19:47:05.748Z,99854.25
2023-05-05T19:49:34.680Z,99862.31
2023-05-05T19:52:04.159Z,99851.84
2023-05-05T19:54:30.813Z,99847.44
2023-05-05T19:56:57.749Z,99849.44
2023-05-05T19:59:24.517Z,99844.66
2023-05-05T20:01:51.602Z,99851.88
2023-05-05T20:04:18.513Z,99841.03
2023-05-05T20:06:45.372Z,99845.88
2023-05-05T20:09:13.814Z,99845.03
2023-05-05T20:11:40.584Z,99837.03
2023-05-05T20:14:08.453Z,99828.59
2023-05-05T20:16:36.594Z,99829.81
2023-05-05T20:19:05.269Z,99834.25
2023-05-05T20:21:32.403Z,99831.44
2023-05-05T20:23:59.665Z,99837.06
2023-05-05T20:26:26.552Z,99827.00
2023-05-05T20:28:53.021Z,99824.63
2023-05-05T20:31:19.536Z,99826.63
2023-05-05T20:33:46.220Z,99827.84
2023-05-05T20:36:12.736Z,99831.09
2023-05-05T20:38:39.228Z,99831.50
2023-05-05T20:41:06.276Z,99834.72
2023-05-05T20:43:32.689Z,99832.72
2023-05-05T20:45:59.158Z,99821.44
2023-05-05T20:48:25.738Z,99830.28
2023-05-05T20:50:52.297Z,99825.88
2023-05-05T20:53:19.193Z,99819.84
2023-05-05T20:55:47.463Z,99825.88
2023-05-05T20:58:13.994Z,99831.91
2023-05-05T21:00:40.819Z,99834.31
2023-05-05T21:03:07.525Z,99828.28
2023-05-05T21:05:35.518Z,99830.72
2023-05-05T21:08:02.018Z,99830.72
2023-05-05T21:10:29.260Z,99825.09
2023-05-05T21:12:55.749Z,99820.66
2023-05-05T21:15:22.642Z,99811.78
2023-05-05T21:17:49.196Z,99811.81
2023-05-05T21:20:16.549Z,99818.66
2023-05-05T21:22:43.011Z,99809.78
2023-05-05T21:25:18.668Z,99806.97
2023-05-05T21:27:47.003Z,99810.19
2023-05-05T21:30:13.938Z,99799.31
2023-05-05T21:32:41.101Z,99798.09
2023-05-05T21:35:08.603Z,99792.06
2023-05-05T21:37:37.248Z,99794.88
2023-05-05T21:40:06.365Z,99786.03
2023-05-05T21:42:33.105Z,99794.50
2023-05-05T21:44:59.515Z,99789.63
2023-05-05T21:47:26.796Z,99782.03
2023-05-05T21:49:54.200Z,99784.44
2023-05-05T21:52:20.860Z,99785.25
2023-05-05T21:54:47.338Z,99787.63
2023-05-05T21:57:13.841Z,99779.97
2023-05-05T21:59:41.201Z,99777.16
2023-05-05T22:02:17.671Z,99775.97
2023-05-05T22:04:48.388Z,99774.34
2023-05-05T22:07:15.123Z,99775.22
2023-05-05T22:09:41.850Z,99779.22
2023-05-05T22:12:08.340Z,99766.75
2023-05-05T22:14:34.829Z,99774.00
2023-05-05T22:17:01.327Z,99783.22
2023-05-05T22:19:28.289Z,99796.41
2023-05-05T22:21:54.926Z,99796.34
2023-05-05T22:24:21.426Z,99804.00
2023-05-05T22:26:47.960Z,99811.59
2023-05-05T22:29:14.450Z,99817.59
2023-05-05T22:31:41.092Z,99820.81
2023-05-05T22:34:07.959Z,99834.06
2023-05-05T22:36:34.449Z,99830.03
2023-05-05T22:39:00.968Z,99840.88
2023-05-05T22:41:27.377Z,99846.47
2023-05-05T22:43:53.984Z,99856.91
2023-05-05T22:46:21.473Z,99855.28
2023-05-05T22:48:49.039Z,99850.81
2023-05-05T22:51:15.641Z,99855.47
2023-05-05T22:53:43.276Z,99848.03
2023-05-05T22:56:09.866Z,99844.69
2023-05-05T22:58:37.332Z,99850.91
2023-05-05T23:01:03.919Z,99863.94
2023-05-05T23:03:31.487Z,99861.84
2023-05-05T23:05:58.106Z,99858.41
2023-05-05T23:08:24.861Z,99875.75
2023-05-05T23:10:51.368Z,99880.25
2023-05-05T23:13:18.547Z,99872.38
2023-05-05T23:15:45.694Z,99886.72
2023-05-05T23:18:12.293Z,99874.44
2023-05-05T23:20:39.191Z,99861.47
2023-05-05T23:23:05.933Z,99861.47
2023-05-05T23:25:32.553Z,99862.38
2023-05-05T23:27:59.341Z,99863.69
2023-05-05T23:30:26.123Z,99860.38
2023-05-05T23:32:54.363Z,99859.91
2023-05-05T23:35:22.242Z,99860.78
2023-05-05T23:37:49.437Z,99858.94
2023-05-05T23:40:16.565Z,99858.59
2023-05-05T23:42:44.221Z,99859.16
2023-05-05T23:45:11.751Z,99855.16
2023-05-05T23:47:38.997Z,99860.00
2023-05-05T23:50:06.655Z,99850.00
2023-05-05T23:52:34.135Z,99852.88
2023-05-05T23:55:00.679Z,99846.09
2023-05-05T23:57:28.915Z,99849.91
2023-05-05T23:59:55.764Z,99849.47
